createdAt,value
2023-08-29T00:00:01.328Z,70.33
2023-08-29T00:02:33.537Z,70.63
2023-08-29T00:05:01.070Z,70.37
2023-08-29T00:07:28.592Z,70.16
2023-08-29T00:09:56.136Z,70.16
2023-08-29T00:12:24.929Z,70.02
2023-08-29T00:14:52.373Z,70.32
2023-08-29T00:17:19.895Z,70.35
2023-08-29T00:19:47.365Z,70.03
2023-08-29T00:22:15.853Z,69.97
2023-08-29T00:24:45.173Z,70.15
2023-08-29T00:27:12.669Z,69.78
2023-08-29T00:29:41.520Z,69.88
2023-08-29T00:32:09.010Z,69.73
2023-08-29T00:34:36.500Z,70.06
2023-08-29T00:37:04.037Z,69.84
2023-08-29T00:39:31.533Z,69.90
2023-08-29T00:41:59.021Z,69.46
2023-08-29T00:44:26.520Z,69.42
2023-08-29T00:46:55.522Z,69.44
2023-08-29T00:49:24.639Z,69.64
2023-08-29T00:51:52.490Z,69.65
2023-08-29T00:54:21.268Z,69.18
2023-08-29T00:56:49.582Z,69.39
2023-08-29T00:59:17.114Z,69.23
2023-08-29T01:01:46.112Z,69.40
2023-08-29T01:04:15.030Z,69.30
2023-08-29T01:06:42.547Z,68.86
2023-08-29T01:09:10.028Z,68.92
2023-08-29T01:11:42.943Z,69.26
2023-08-29T01:14:13.765Z,68.96
2023-08-29T01:16:43.222Z,68.99
2023-08-29T01:19:14.055Z,69.23
2023-08-29T01:21:47.473Z,69.32
2023-08-29T01:24:20.523Z,69.19
2023-08-29T01:26:50.596Z,69.28
2023-08-29T01:29:18.302Z,69.05
2023-08-29T01:31:45.892Z,69.15
2023-08-29T01:34:13.945Z,68.81
2023-08-29T01:36:41.933Z,68.82
2023-08-29T01:39:09.524Z,68.83
2023-08-29T01:41:37.229Z,68.97
2023-08-29T01:44:07.076Z,68.87
2023-08-29T01:46:34.564Z,68.96
2023-08-29T01:49:03.497Z,69.15
2023-08-29T01:51:31.486Z,69.24
2023-08-29T01:53:59.049Z,68.98
2023-08-29T01:56:27.959Z,68.82
2023-08-29T01:58:55.678Z,68.84
2023-08-29T02:01:24.918Z,69.17
2023-08-29T02:03:52.747Z,69.16
2023-08-29T02:06:20.574Z,68.68
2023-08-29T02:08:48.176Z,69.13
2023-08-29T02:11:15.760Z,68.86
2023-08-29T02:13:43.295Z,69.05
2023-08-29T02:16:10.741Z,68.71
2023-08-29T02:18:40.378Z,68.68
2023-08-29T02:21:07.891Z,68.83
2023-08-29T02:23:35.364Z,68.59
2023-08-29T02:26:04.060Z,68.93
2023-08-29T02:28:34.687Z,68.69
2023-08-29T02:31:04.325Z,68.81
2023-08-29T02:33:32.111Z,68.59
2023-08-29T02:36:00.917Z,68.43
2023-08-29T02:38:28.458Z,68.73
2023-08-29T02:40:55.936Z,68.27
2023-08-29T02:43:23.439Z,68.43
2023-08-29T02:45:51.686Z,68.61
2023-08-29T02:48:19.192Z,68.13
2023-08-29T02:50:49.328Z,68.53
2023-08-29T02:53:18.806Z,68.27
2023-08-29T02:55:46.308Z,68.40
2023-08-29T02:58:14.070Z,68.46
2023-08-29T03:00:41.619Z,67.97
2023-08-29T03:03:09.498Z,68.34
2023-08-29T03:05:37.059Z,68.13
2023-08-29T03:08:06.048Z,68.22
2023-08-29T03:10:38.263Z,67.82
2023-08-29T03:13:06.014Z,67.97
2023-08-29T03:15:33.763Z,68.28
2023-08-29T03:18:01.742Z,68.10
2023-08-29T03:20:29.477Z,68.07
2023-08-29T03:22:57.001Z,68.03
2023-08-29T03:25:24.585Z,68.31
2023-08-29T03:27:53.735Z,68.11
2023-08-29T03:30:21.361Z,68.06
2023-08-29T03:32:51.430Z,68.32
2023-08-29T03:35:19.109Z,67.99
2023-08-29T03:37:46.874Z,68.03
2023-08-29T03:40:14.817Z,68.01
2023-08-29T03:42:42.327Z,68.19
2023-08-29T03:45:11.498Z,67.82
2023-08-29T03:47:39.844Z,68.02
2023-08-29T03:50:07.784Z,68.23
2023-08-29T03:52:35.270Z,68.04
2023-08-29T03:55:02.750Z,68.03
2023-08-29T03:57:30.223Z,68.17
2023-08-29T03:59:57.783Z,67.86
2023-08-29T04:02:26.809Z,68.06
2023-08-29T04:04:54.944Z,68.32
2023-08-29T04:07:22.697Z,67.84
2023-08-29T04:09:50.164Z,68.17
2023-08-29T04:12:17.645Z,68.02
2023-08-29T04:14:45.134Z,68.00
2023-08-29T04:17:12.617Z,67.97
2023-08-29T04:19:41.440Z,67.58
2023-08-29T04:22:08.994Z,67.62
2023-08-29T04:24:36.444Z,67.52
2023-08-29T04:27:04.181Z,67.34
2023-08-29T04:29:31.690Z,67.54
2023-08-29T04:31:59.172Z,67.46
2023-08-29T04:34:26.641Z,67.82
2023-08-29T04:36:56.420Z,67.23
2023-08-29T04:39:23.886Z,67.41
2023-08-29T04:41:51.907Z,67.50
2023-08-29T04:44:19.413Z,67.43
2023-08-29T04:46:46.887Z,67.63
2023-08-29T04:49:14.366Z,67.75
2023-08-29T04:51:41.867Z,67.49
2023-08-29T04:54:10.676Z,67.66
2023-08-29T04:56:38.171Z,67.66
2023-08-29T04:59:05.848Z,67.43
2023-08-29T05:01:33.411Z,67.56
2023-08-29T05:04:00.933Z,67.67
2023-08-29T05:06:28.461Z,67.42
2023-08-29T05:08:55.916Z,67.32
2023-08-29T05:11:24.714Z,67.35
2023-08-29T05:13:52.195Z,67.65
2023-08-29T05:16:19.718Z,67.45
2023-08-29T05:18:47.699Z,67.53
2023-08-29T05:21:15.195Z,67.53
2023-08-29T05:23:42.630Z,67.72
2023-08-29T05:26:11.745Z,68.61
2023-08-29T05:28:42.556Z,68.76
2023-08-29T05:31:10.125Z,69.10
2023-08-29T05:33:37.679Z,69.22
2023-08-29T05:36:05.196Z,69.54
2023-08-29T05:38:32.713Z,69.46
2023-08-29T05:41:00.189Z,69.74
2023-08-29T05:43:28.109Z,69.92
2023-08-29T05:45:57.715Z,70.25
2023-08-29T05:48:25.455Z,70.40
2023-08-29T05:50:52.998Z,70.39
2023-08-29T05:53:20.560Z,70.58
2023-08-29T05:55:48.439Z,70.89
2023-08-29T05:58:15.978Z,70.72
2023-08-29T06:00:43.521Z,71.14
2023-08-29T06:03:13.031Z,71.02
2023-08-29T06:05:42.703Z,71.12
2023-08-29T06:08:19.248Z,71.02
2023-08-29T06:10:48.865Z,71.30
2023-08-29T06:13:16.397Z,71.34
2023-08-29T06:15:43.879Z,71.67
2023-08-29T06:18:12.771Z,71.59
2023-08-29T06:20:40.344Z,71.77
2023-08-29T06:23:07.932Z,71.93
2023-08-29T06:25:35.441Z,72.01
2023-08-29T06:28:02.958Z,71.73
2023-08-29T06:30:30.464Z,72.07
2023-08-29T06:32:58.012Z,72.13
2023-08-29T06:35:27.070Z,72.20
2023-08-29T06:37:56.670Z,72.07
2023-08-29T06:40:24.138Z,71.97
2023-08-29T06:42:51.590Z,72.46
2023-08-29T06:45:19.183Z,72.45
2023-08-29T06:47:46.722Z,72.45
2023-08-29T06:50:14.250Z,72.49
2023-08-29T06:52:43.095Z,72.88
2023-08-29T06:55:11.036Z,72.38
2023-08-29T06:57:38.762Z,72.38
2023-08-29T07:00:06.875Z,72.40
2023-08-29T07:02:34.458Z,72.61
2023-08-29T07:05:02.018Z,72.72
2023-08-29T07:07:30.010Z,72.80
2023-08-29T07:09:58.832Z,72.99
2023-08-29T07:12:26.297Z,72.65
2023-08-29T07:14:53.806Z,72.82
2023-08-29T07:17:21.361Z,73.08
2023-08-29T07:19:48.824Z,72.81
2023-08-29T07:22:23.968Z,72.86
2023-08-29T07:24:52.278Z,73.26
2023-08-29T07:27:21.586Z,73.24
2023-08-29T07:29:49.260Z,72.99
2023-08-29T07:32:16.775Z,72.95
2023-08-29T07:34:44.276Z,73.35
2023-08-29T07:37:11.784Z,73.49
2023-08-29T07:39:39.259Z,73.16
2023-08-29T07:42:07.046Z,73.17
2023-08-29T07:44:35.850Z,73.53
2023-08-29T07:47:14.789Z,73.55
2023-08-29T07:49:43.380Z,73.43
2023-08-29T07:52:11.145Z,73.49
2023-08-29T07:54:38.704Z,73.32
2023-08-29T07:57:06.193Z,73.54
2023-08-29T07:59:33.680Z,73.78
2023-08-29T08:02:02.570Z,73.62
2023-08-29T08:04:30.048Z,73.69
2023-08-29T08:06:57.554Z,73.73
2023-08-29T08:09:25.154Z,73.74
2023-08-29T08:11:52.627Z,73.55
2023-08-29T08:14:20.189Z,73.70
2023-08-29T08:16:47.701Z,73.93
2023-08-29T08:19:16.756Z,73.43
2023-08-29T08:21:44.270Z,73.67
2023-08-29T08:24:11.778Z,73.93
2023-08-29T08:26:39.266Z,73.78
2023-08-29T08:29:06.800Z,73.71
2023-08-29T08:31:34.640Z,73.76
2023-08-29T08:34:02.436Z,73.94
2023-08-29T08:36:31.831Z,73.87
2023-08-29T08:38:59.316Z,73.84
2023-08-29T08:41:26.854Z,73.89
2023-08-29T08:43:57.244Z,74.07
2023-08-29T08:46:24.838Z,73.95
2023-08-29T08:48:52.479Z,74.11
2023-08-29T08:51:21.019Z,74.03
2023-08-29T08:53:51.191Z,74.07
2023-08-29T08:56:18.657Z,74.30
2023-08-29T08:58:46.453Z,74.21
2023-08-29T09:01:14.176Z,74.43
2023-08-29T09:03:41.906Z,74.37
2023-08-29T09:06:13.967Z,74.44
2023-08-29T09:08:41.631Z,74.33
2023-08-29T09:11:11.241Z,74.44
2023-08-29T09:13:46.931Z,74.46
2023-08-29T09:16:14.908Z,74.15
2023-08-29T09:18:44.814Z,74.39
2023-08-29T09:21:18.269Z,74.50
2023-08-29T09:23:45.834Z,74.33
2023-08-29T09:26:14.887Z,74.24
2023-08-29T09:28:42.715Z,74.64
2023-08-29T09:31:10.900Z,74.49
2023-08-29T09:33:39.247Z,74.61
2023-08-29T09:36:07.076Z,74.58
2023-08-29T09:38:35.263Z,74.68
2023-08-29T09:41:02.774Z,74.50
2023-08-29T09:43:31.949Z,74.43
2023-08-29T09:46:00.453Z,74.46
2023-08-29T09:48:29.000Z,74.38
2023-08-29T09:50:58.216Z,74.75
2023-08-29T09:53:25.959Z,74.92
2023-08-29T09:55:57.686Z,74.52
2023-08-29T09:58:26.929Z,74.79
2023-08-29T10:00:56.095Z,74.82
2023-08-29T10:03:25.893Z,74.77
2023-08-29T10:05:53.863Z,74.62
2023-08-29T10:08:26.082Z,74.72
2023-08-29T10:10:56.338Z,74.95
2023-08-29T10:13:23.967Z,74.97
2023-08-29T10:15:52.790Z,74.95
2023-08-29T10:18:21.912Z,74.63
2023-08-29T10:20:50.772Z,74.77
2023-08-29T10:23:19.757Z,74.90
2023-08-29T10:25:47.587Z,74.88
2023-08-29T10:28:16.230Z,74.85
2023-08-29T10:30:45.283Z,74.74
2023-08-29T10:33:13.526Z,74.82
2023-08-29T10:35:42.572Z,75.18
2023-08-29T10:38:15.220Z,75.16
2023-08-29T10:40:44.265Z,74.88
2023-08-29T10:43:18.172Z,75.05
2023-08-29T10:45:48.372Z,75.29
2023-08-29T10:48:19.825Z,74.93
2023-08-29T10:50:49.418Z,74.97
2023-08-29T10:53:20.741Z,74.83
2023-08-29T10:55:59.869Z,75.13
2023-08-29T10:58:35.740Z,74.96
2023-08-29T11:01:03.922Z,74.99
2023-08-29T11:03:41.596Z,75.19
2023-08-29T11:06:10.552Z,75.18
2023-08-29T11:08:38.245Z,75.13
2023-08-29T11:11:16.372Z,75.16
2023-08-29T11:13:59.727Z,75.03
2023-08-29T11:16:27.377Z,75.20
2023-08-29T11:19:07.613Z,75.05
2023-08-29T11:21:36.485Z,75.41
2023-08-29T11:26:37.676Z,75.53
2023-08-29T11:29:06.802Z,75.44
2023-08-29T11:31:34.664Z,75.16
2023-08-29T11:34:02.185Z,75.43
2023-08-29T11:36:32.961Z,75.40
2023-08-29T11:39:01.794Z,75.47
2023-08-29T11:41:39.747Z,75.53
2023-08-29T11:44:37.770Z,75.53
2023-08-29T11:47:05.139Z,75.54
2023-08-29T11:49:33.465Z,75.39
2023-08-29T11:52:01.087Z,75.38
2023-08-29T11:54:42.967Z,75.74
2023-08-29T11:57:12.570Z,75.68
2023-08-29T11:59:43.027Z,75.38
2023-08-29T12:02:13.067Z,75.55
2023-08-29T12:04:41.184Z,75.53
2023-08-29T12:07:12.348Z,75.42
2023-08-29T12:09:42.416Z,75.36
2023-08-29T12:12:11.896Z,75.62
2023-08-29T12:14:50.170Z,75.83
2023-08-29T12:17:17.886Z,75.45
2023-08-29T12:19:45.422Z,75.75
2023-08-29T12:22:12.936Z,75.74
2023-08-29T12:24:41.466Z,75.82
2023-08-29T12:27:08.934Z,75.60
2023-08-29T12:29:37.813Z,75.76
2023-08-29T12:32:07.204Z,75.74
2023-08-29T12:34:34.919Z,75.61
2023-08-29T12:37:02.453Z,75.92
2023-08-29T12:39:29.927Z,75.91
2023-08-29T12:41:57.725Z,75.81
2023-08-29T12:44:25.203Z,75.91
2023-08-29T12:46:54.032Z,75.91
2023-08-29T12:49:21.548Z,75.66
2023-08-29T12:51:49.051Z,75.97
2023-08-29T12:54:16.586Z,75.97
2023-08-29T12:56:45.058Z,75.83
2023-08-29T12:59:12.552Z,75.78
2023-08-29T13:01:40.068Z,75.89
2023-08-29T13:04:09.106Z,75.67
2023-08-29T13:06:36.713Z,76.07
2023-08-29T13:09:04.182Z,75.96
2023-08-29T13:11:31.657Z,75.94
2023-08-29T13:13:59.177Z,76.09
2023-08-29T13:16:32.517Z,75.72
2023-08-29T13:19:00.222Z,75.98
2023-08-29T13:21:29.617Z,75.90
2023-08-29T13:23:57.300Z,75.82
2023-08-29T13:26:25.002Z,75.95
2023-08-29T13:28:53.797Z,76.12
2023-08-29T13:31:22.861Z,76.17
2023-08-29T13:33:50.598Z,76.14
2023-08-29T13:36:18.107Z,76.03
2023-08-29T13:38:46.969Z,75.90
2023-08-29T13:41:14.881Z,76.13
2023-08-29T13:43:42.389Z,75.88
2023-08-29T13:46:09.878Z,76.14
2023-08-29T13:48:37.407Z,75.89
2023-08-29T13:51:04.925Z,76.15
2023-08-29T13:53:32.463Z,76.24
2023-08-29T13:56:01.430Z,76.00
2023-08-29T13:58:29.004Z,76.25
2023-08-29T14:00:56.905Z,76.17
2023-08-29T14:03:37.083Z,76.22
2023-08-29T14:06:06.549Z,76.37
2023-08-29T14:08:34.084Z,76.36
2023-08-29T14:11:06.532Z,76.45
2023-08-29T14:13:35.437Z,76.37
2023-08-29T14:16:04.931Z,76.36
2023-08-29T14:18:32.555Z,76.26
2023-08-29T14:21:00.198Z,76.47
2023-08-29T14:23:28.153Z,76.38
2023-08-29T14:25:55.780Z,76.44
2023-08-29T14:28:24.652Z,76.33
2023-08-29T14:30:52.243Z,76.35
2023-08-29T14:33:19.877Z,76.11
2023-08-29T14:35:47.423Z,76.43
2023-08-29T14:38:15.042Z,76.25
2023-08-29T14:40:42.507Z,76.10
2023-08-29T14:43:10.490Z,76.37
2023-08-29T14:45:43.055Z,76.44
2023-08-29T14:48:12.959Z,76.49
2023-08-29T14:50:45.218Z,76.38
2023-08-29T14:53:12.764Z,76.16
2023-08-29T14:55:40.257Z,76.19
2023-08-29T14:58:08.045Z,76.11
2023-08-29T15:00:35.975Z,76.25
2023-08-29T15:03:09.900Z,76.39
2023-08-29T15:05:37.850Z,76.56
2023-08-29T15:08:05.947Z,76.31
2023-08-29T15:10:33.710Z,76.60
2023-08-29T15:13:01.283Z,76.63
2023-08-29T15:15:29.156Z,76.29
2023-08-29T15:17:56.786Z,76.44
2023-08-29T15:20:26.303Z,76.67
2023-08-29T15:22:54.058Z,76.71
2023-08-29T15:25:21.542Z,76.64
2023-08-29T15:27:49.034Z,76.52
2023-08-29T15:30:16.513Z,76.29
2023-08-29T15:32:44.041Z,76.54
2023-08-29T15:35:11.989Z,76.28
2023-08-29T15:37:40.800Z,76.71
2023-08-29T15:40:10.017Z,76.55
2023-08-29T15:42:38.127Z,76.67
2023-08-29T15:45:06.213Z,76.60
2023-08-29T15:47:33.738Z,76.41
2023-08-29T15:50:01.251Z,76.57
2023-08-29T15:52:28.814Z,76.66
2023-08-29T15:54:57.665Z,76.77
2023-08-29T15:57:25.215Z,76.77
2023-08-29T15:59:52.865Z,76.57
2023-08-29T16:02:20.410Z,76.68
2023-08-29T16:04:47.895Z,76.52
2023-08-29T16:07:15.394Z,76.66
2023-08-29T16:09:42.855Z,76.54
2023-08-29T16:12:11.752Z,76.52
2023-08-29T16:14:39.233Z,76.78
2023-08-29T16:17:06.721Z,76.83
2023-08-29T16:19:34.303Z,76.88
2023-08-29T16:22:01.840Z,76.86
2023-08-29T16:24:29.360Z,76.86
2023-08-29T16:26:56.904Z,76.66
2023-08-29T16:29:25.703Z,76.67
2023-08-29T16:31:53.217Z,77.08
2023-08-29T16:34:20.745Z,76.99
2023-08-29T16:36:48.224Z,76.98
2023-08-29T16:39:15.704Z,76.87
2023-08-29T16:41:43.229Z,76.91
2023-08-29T16:44:11.062Z,76.78
2023-08-29T16:46:39.924Z,76.64
2023-08-29T16:49:07.466Z,76.91
2023-08-29T16:51:34.942Z,77.01
2023-08-29T16:54:02.482Z,76.87
2023-08-29T16:56:31.792Z,76.81
2023-08-29T16:59:00.100Z,76.66
2023-08-29T17:01:27.591Z,76.97
2023-08-29T17:03:56.612Z,76.77
2023-08-29T17:06:24.159Z,76.93
2023-08-29T17:08:54.234Z,76.94
2023-08-29T17:11:22.797Z,77.07
2023-08-29T17:13:50.317Z,76.83
2023-08-29T17:16:17.915Z,77.01
2023-08-29T17:18:45.462Z,77.04
2023-08-29T17:21:14.282Z,76.93
2023-08-29T17:23:41.771Z,76.77
2023-08-29T17:26:09.329Z,76.96
2023-08-29T17:28:36.793Z,76.69
2023-08-29T17:31:04.265Z,77.09
2023-08-29T17:33:31.790Z,77.06
2023-08-29T17:35:59.245Z,76.97
2023-08-29T17:38:28.089Z,77.06
2023-08-29T17:40:59.230Z,77.08
2023-08-29T17:43:26.690Z,76.94
2023-08-29T17:45:57.508Z,77.03
2023-08-29T17:48:27.078Z,76.86
2023-08-29T17:50:59.080Z,77.07
2023-08-29T17:53:28.030Z,76.91
2023-08-29T17:55:55.793Z,77.18
2023-08-29T17:58:23.368Z,76.76
2023-08-29T18:00:51.181Z,77.22
2023-08-29T18:03:18.726Z,77.14
2023-08-29T18:05:49.686Z,76.90
2023-08-29T18:08:17.740Z,77.02
2023-08-29T18:10:47.090Z,76.81
2023-08-29T18:13:14.987Z,76.95
2023-08-29T18:15:42.800Z,77.12
2023-08-29T18:18:17.982Z,77.17
2023-08-29T18:20:45.684Z,77.18
2023-08-29T18:23:13.181Z,77.13
2023-08-29T18:25:40.944Z,76.91
2023-08-29T18:28:10.067Z,77.03
2023-08-29T18:30:38.501Z,77.26
2023-08-29T18:33:07.558Z,77.17
2023-08-29T18:35:35.611Z,76.78
2023-08-29T18:38:03.065Z,77.10
2023-08-29T18:40:30.805Z,77.16
2023-08-29T18:42:59.040Z,77.27
2023-08-29T18:45:27.988Z,76.96
2023-08-29T18:47:57.207Z,77.26
2023-08-29T18:50:25.845Z,77.21
2023-08-29T18:52:54.426Z,77.18
2023-08-29T18:55:21.942Z,77.31
2023-08-29T18:57:49.510Z,77.13
2023-08-29T19:00:17.993Z,77.38
2023-08-29T19:02:47.989Z,77.37
2023-08-29T19:05:15.952Z,77.33
2023-08-29T19:07:44.242Z,77.43
2023-08-29T19:10:12.441Z,77.25
2023-08-29T19:12:39.967Z,77.41
2023-08-29T19:15:07.858Z,77.49
2023-08-29T19:17:35.375Z,77.38
2023-08-29T19:20:04.624Z,77.32
2023-08-29T19:22:32.473Z,77.30
2023-08-29T19:24:59.943Z,77.09
2023-08-29T19:27:29.016Z,77.11
2023-08-29T19:29:56.664Z,77.43
2023-08-29T19:32:24.196Z,77.34
2023-08-29T19:34:51.751Z,77.38
2023-08-29T19:37:22.260Z,77.18
2023-08-29T19:39:49.947Z,77.43
2023-08-29T19:42:17.434Z,77.24
2023-08-29T19:44:44.942Z,77.23
2023-08-29T19:47:12.423Z,77.34
2023-08-29T19:49:40.616Z,77.34
2023-08-29T19:52:08.128Z,77.47
2023-08-29T19:54:36.972Z,77.38
2023-08-29T19:57:04.990Z,77.45
2023-08-29T19:59:35.253Z,77.15
2023-08-29T20:02:03.166Z,77.49
2023-08-29T20:04:30.738Z,77.32
2023-08-29T20:06:58.253Z,77.21
2023-08-29T20:09:26.303Z,77.39
2023-08-29T20:11:55.368Z,77.60
2023-08-29T20:14:22.916Z,77.40
2023-08-29T20:16:52.297Z,77.44
2023-08-29T20:19:19.886Z,77.59
2023-08-29T20:21:47.355Z,77.33
2023-08-29T20:24:14.798Z,77.59
2023-08-29T20:26:42.294Z,77.58
2023-08-29T20:29:11.171Z,77.58
2023-08-29T20:31:38.657Z,77.36
2023-08-29T20:34:06.193Z,77.47
2023-08-29T20:36:33.745Z,77.36
2023-08-29T20:39:01.260Z,77.60
2023-08-29T20:41:28.837Z,77.66
2023-08-29T20:43:56.331Z,77.44
2023-08-29T20:46:25.185Z,77.54
2023-08-29T20:48:53.680Z,77.64
2023-08-29T20:51:21.166Z,77.37
2023-08-29T20:53:48.616Z,77.56
2023-08-29T20:56:16.145Z,77.31
2023-08-29T20:58:43.664Z,77.62
2023-08-29T21:01:11.525Z,77.60
2023-08-29T21:03:43.618Z,77.62
2023-08-29T21:06:11.141Z,77.42
2023-08-29T21:08:38.637Z,77.62
2023-08-29T21:11:06.266Z,77.41
2023-08-29T21:13:33.742Z,77.75
2023-08-29T21:16:01.266Z,77.32
2023-08-29T21:18:28.743Z,77.71
2023-08-29T21:21:00.234Z,77.70
2023-08-29T21:23:28.796Z,77.46
2023-08-29T21:25:56.267Z,77.62
2023-08-29T21:28:24.876Z,77.52
2023-08-29T21:30:52.856Z,77.83
2023-08-29T21:33:20.724Z,77.58
2023-08-29T21:35:49.687Z,77.63
2023-08-29T21:38:18.646Z,77.73
2023-08-29T21:40:46.943Z,77.74
2023-08-29T21:43:15.944Z,77.80
2023-08-29T21:45:43.429Z,77.54
2023-08-29T21:48:11.789Z,77.59
2023-08-29T21:50:39.900Z,77.65
2023-08-29T21:53:08.074Z,77.57
2023-08-29T21:55:37.245Z,77.55
2023-08-29T21:58:05.547Z,77.65
2023-08-29T22:00:34.095Z,77.50
2023-08-29T22:03:02.078Z,77.55
2023-08-29T22:05:30.351Z,77.62
2023-08-29T22:07:58.190Z,77.77
2023-08-29T22:10:25.702Z,77.76
2023-08-29T22:12:54.678Z,77.72
2023-08-29T22:15:22.316Z,77.83
2023-08-29T22:17:49.932Z,77.80
2023-08-29T22:20:17.753Z,77.79
2023-08-29T22:22:45.244Z,77.75
2023-08-29T22:25:12.747Z,77.87
2023-08-29T22:27:40.233Z,77.68
2023-08-29T22:30:10.488Z,77.49
2023-08-29T22:32:38.930Z,77.90
2023-08-29T22:35:06.966Z,77.52
2023-08-29T22:37:34.464Z,77.97
2023-08-29T22:40:02.258Z,77.90
2023-08-29T22:42:29.789Z,77.82
2023-08-29T22:44:57.318Z,77.61
2023-08-29T22:47:26.187Z,77.51
2023-08-29T22:49:53.670Z,77.90
2023-08-29T22:52:21.151Z,77.78
2023-08-29T22:54:48.728Z,77.75
2023-08-29T22:57:16.211Z,77.96
2023-08-29T22:59:43.681Z,77.88
2023-08-29T23:02:11.215Z,77.78
2023-08-29T23:04:40.048Z,77.63
2023-08-29T23:07:08.449Z,77.67
2023-08-29T23:09:36.680Z,78.06
2023-08-29T23:12:04.560Z,77.94
2023-08-29T23:14:32.052Z,77.83
2023-08-29T23:16:59.557Z,77.81
2023-08-29T23:19:27.271Z,77.80
2023-08-29T23:21:56.230Z,77.87
2023-08-29T23:24:23.705Z,77.60
2023-08-29T23:26:51.157Z,77.95
2023-08-29T23:29:20.019Z,77.90
2023-08-29T23:31:47.527Z,77.67
2023-08-29T23:34:15.007Z,77.65
2023-08-29T23:36:44.117Z,77.99
2023-08-29T23:39:12.971Z,77.97
2023-08-29T23:41:40.496Z,77.95
2023-08-29T23:44:08.040Z,77.95
2023-08-29T23:46:35.576Z,77.98
2023-08-29T23:49:03.049Z,77.77
2023-08-29T23:51:30.499Z,77.76
2023-08-29T23:53:58.004Z,77.96
2023-08-29T23:56:26.797Z,78.03
2023-08-29T23:58:54.248Z,77.80
